Time;durP1;ratioP1;P1;durP2;ratioP2;P2;SDS_P1;SDS_P2;PMS_P1;PMS_P2;Temp;Humidity;BMP_temperature;BMP_pressure;BME280_temperature;BME280_humidity;BME280_pressure;Samples;Min_cycle;Max_cycle;Signal;HPM_P1;HPM_P2
2023/07/05 00:00:53;;;;;;;16.70;6.28;;;;;;;17.20;99.87;100358.78;5005559;28;20026;-77
2023/07/05 00:03:19;;;;;;;14.27;6.60;;;;;;;17.21;100.00;100360.38;5007476;28;20029;-80
2023/07/05 00:05:44;;;;;;;15.15;6.05;;;;;;;17.32;100.00;100352.63;4990737;28;20060;-77
2023/07/05 00:08:10;;;;;;;14.40;5.50;;;;;;;17.13;100.00;100345.69;5006795;28;20037;-78
2023/07/05 00:10:36;;;;;;;14.20;5.75;;;;;;;17.09;100.00;100332.22;5007010;28;21280;-78
2023/07/05 00:13:01;;;;;;;11.27;5.30;;;;;;;17.07;100.00;100328.22;5007980;28;20120;-79
2023/07/05 00:15:28;;;;;;;10.75;5.32;;;;;;;17.01;100.00;100314.13;5004988;28;20058;-76
2023/07/05 00:17:54;;;;;;;10.82;4.97;;;;;;;16.97;100.00;100309.50;4990587;28;20034;-76
2023/07/05 00:20:20;;;;;;;13.27;6.00;;;;;;;16.89;100.00;100308.75;5008041;28;20049;-79
2023/07/05 00:22:45;;;;;;;15.32;5.50;;;;;;;16.90;100.00;100306.94;5004983;28;20036;-78
2023/07/05 00:25:11;;;;;;;14.05;5.70;;;;;;;16.85;100.00;100297.09;5011538;28;20037;-78
2023/07/05 00:27:36;;;;;;;11.55;5.63;;;;;;;16.79;100.00;100303.13;5011073;28;20033;-76
2023/07/05 00:30:02;;;;;;;13.15;5.28;;;;;;;16.88;100.00;100294.06;4996385;28;20053;-78
2023/07/05 00:32:28;;;;;;;13.60;5.63;;;;;;;16.81;100.00;100289.84;5016465;28;20091;-77
2023/07/05 00:34:53;;;;;;;15.10;5.97;;;;;;;16.74;100.00;100280.22;4996347;28;20050;-77
2023/07/05 00:37:19;;;;;;;11.52;5.28;;;;;;;16.76;100.00;100277.38;4999433;28;20531;-75
2023/07/05 00:39:44;;;;;;;13.63;5.22;;;;;;;16.67;100.00;100271.59;5028656;28;20053;-77
2023/07/05 00:42:10;;;;;;;9.80;3.97;;;;;;;16.74;100.00;100266.31;4995417;28;20517;-78
2023/07/05 00:44:35;;;;;;;7.63;4.20;;;;;;;16.78;100.00;100258.84;5014156;28;20532;-80
2023/07/05 00:47:08;;;;;;;6.75;3.67;;;;;;;16.73;100.00;100260.28;4994010;28;20302;-78
2023/07/05 00:49:37;;;;;;;7.97;4.18;;;;;;;16.68;100.00;100247.00;5012393;28;20073;-79
2023/07/05 00:52:11;;;;;;;9.45;4.00;;;;;;;16.76;100.00;100245.94;5011483;28;20042;-77
2023/07/05 00:54:47;;;;;;;6.90;3.25;;;;;;;16.74;100.00;100250.59;5010559;28;20051;-79
2023/07/05 00:57:17;;;;;;;7.45;3.25;;;;;;;16.74;100.00;100243.56;5015077;28;20033;-79
2023/07/05 00:59:48;;;;;;;7.38;3.65;;;;;;;16.72;100.00;100236.91;5010905;28;20049;-77
2023/07/05 01:02:14;;;;;;;6.45;3.40;;;;;;;16.73;100.00;100228.06;5011045;28;20093;-81
2023/07/05 01:04:40;;;;;;;5.88;3.28;;;;;;;16.72;100.00;100234.28;5010702;28;20088;-77
2023/07/05 01:07:06;;;;;;;5.72;3.40;;;;;;;16.64;100.00;100226.69;5011400;28;20030;-78
2023/07/05 01:09:31;;;;;;;9.15;3.30;;;;;;;16.65;100.00;100221.25;4994039;28;20483;-80
2023/07/05 01:12:19;;;;;;;12.02;3.55;;;;;;;16.70;100.00;100225.84;5009212;28;20029;-76
2023/07/05 01:15:05;;;;;;;7.32;3.28;;;;;;;16.73;100.00;100215.78;4993403;28;20520;-78
2023/07/05 01:17:59;;;;;;;8.57;3.40;;;;;;;16.77;100.00;100213.53;5008982;28;20030;-76
2023/07/05 01:21:00;;;;;;;7.35;3.17;;;;;;;16.69;100.00;100198.09;5008222;28;20068;-77
2023/07/05 01:24:00;;;;;;;5.93;2.92;;;;;;;16.62;100.00;100197.31;5009379;28;20042;-75
2023/07/05 01:26:59;;;;;;;6.82;3.15;;;;;;;16.59;100.00;100190.66;5005862;28;20127;-75
2023/07/05 01:29:52;;;;;;;3.97;2.60;;;;;;;16.68;100.00;100191.22;4978322;28;20085;-77
2023/07/05 01:32:30;;;;;;;;;;;;;;;16.65;100.00;100181.19;4994846;28;20030;-73
2023/07/05 01:35:12;;;;;;;7.03;3.13;;;;;;;16.69;100.00;100175.31;4994360;28;20366;-78
2023/07/05 01:37:41;;;;;;;8.40;3.47;;;;;;;16.64;100.00;100169.91;5024081;28;20038;-78
2023/07/05 01:40:21;;;;;;;10.38;4.30;;;;;;;16.70;100.00;100173.50;4989256;28;20050;-76
2023/07/05 01:42:51;;;;;;;9.55;3.80;;;;;;;16.70;100.00;100165.66;5002465;28;20072;-76
2023/07/05 01:45:26;;;;;;;6.10;3.55;;;;;;;16.68;100.00;100170.28;5004865;28;20088;-76
2023/07/05 01:48:31;;;;;;;8.10;3.00;;;;;;;16.67;100.00;100176.53;5005534;28;20038;-76
2023/07/05 01:51:06;;;;;;;10.65;3.40;;;;;;;16.70;100.00;100163.81;4991389;28;20501;-74
2023/07/05 01:53:42;;;;;;;5.30;3.05;;;;;;;16.70;100.00;100171.69;5005590;28;20041;-77
2023/07/05 01:56:20;;;;;;;5.38;2.88;;;;;;;16.80;100.00;100160.75;5011905;28;20500;-79
2023/07/05 01:58:48;;;;;;;5.10;3.40;;;;;;;16.81;100.00;100156.31;5006147;28;20038;-76
2023/07/05 02:01:16;;;;;;;8.07;2.50;;;;;;;16.93;100.00;100165.09;5004516;28;20117;-77
2023/07/05 02:03:44;;;;;;;4.45;2.33;;;;;;;16.78;100.00;100157.53;4991684;28;20105;-74
2023/07/05 02:06:11;;;;;;;5.70;2.90;;;;;;;16.83;100.00;100164.78;5012794;28;20116;-78
2023/07/05 02:08:39;;;;;;;5.03;2.72;;;;;;;16.71;100.00;100154.97;5008739;28;20150;-76
2023/07/05 02:11:05;;;;;;;6.38;2.72;;;;;;;16.78;100.00;100162.75;5007701;28;20026;-77
2023/07/05 02:13:31;;;;;;;5.55;2.45;;;;;;;16.76;100.00;100156.94;5007399;28;20029;-79
2023/07/05 02:15:56;;;;;;;7.43;3.33;;;;;;;16.76;100.00;100156.16;4990057;28;20451;-79
2023/07/05 02:18:22;;;;;;;3.72;2.25;;;;;;;16.87;100.00;100147.63;5021902;28;20029;-77
2023/07/05 02:20:47;;;;;;;5.60;2.42;;;;;;;16.84;100.00;100146.25;5008015;28;20030;-79
2023/07/05 02:23:13;;;;;;;6.68;2.20;;;;;;;16.80;100.00;100159.94;4987178;28;20081;-76
2023/07/05 02:25:38;;;;;;;5.93;2.15;;;;;;;16.76;100.00;100159.56;5008300;28;20393;-76
2023/07/05 02:28:08;;;;;;;5.88;2.85;;;;;;;16.74;100.00;100164.22;4989054;28;20084;-75
2023/07/05 02:30:36;;;;;;;5.50;2.35;;;;;;;16.78;100.00;100164.59;5007537;28;20080;-75
2023/07/05 02:33:02;;;;;;;5.40;1.88;;;;;;;16.75;100.00;100163.22;5009817;28;20045;-75
2023/07/05 02:35:27;;;;;;;4.18;2.13;;;;;;;16.74;100.00;100175.50;4993274;28;20049;-78
2023/07/05 02:37:55;;;;;;;11.35;2.35;;;;;;;16.82;100.00;100184.94;5011874;28;20042;-78
2023/07/05 02:40:22;;;;;;;3.08;1.83;;;;;;;16.74;100.00;100182.53;5023701;28;20050;-75
2023/07/05 02:42:47;;;;;;;5.75;1.75;;;;;;;16.70;100.00;100186.59;5013276;28;20168;-80
2023/07/05 02:45:13;;;;;;;4.13;2.10;;;;;;;16.70;100.00;100197.06;4990509;28;20053;-75
2023/07/05 02:47:38;;;;;;;2.75;1.85;;;;;;;16.75;100.00;100194.63;4986692;28;20033;-76
2023/07/05 02:50:04;;;;;;;5.18;1.70;;;;;;;16.74;100.00;100196.44;5008522;28;20056;-77
2023/07/05 02:52:29;;;;;;;3.95;1.55;;;;;;;16.78;100.00;100202.03;5011119;28;20029;-78
2023/07/05 02:54:55;;;;;;;2.53;1.35;;;;;;;16.67;100.00;100219.22;5013508;28;20044;-76
2023/07/05 02:57:20;;;;;;;6.13;1.52;;;;;;;16.53;97.03;100220.31;5004731;28;20037;-77
2023/07/05 02:59:46;;;;;;;2.75;1.45;;;;;;;16.44;95.55;100229.41;4991610;28;20042;-74
2023/07/05 03:02:11;;;;;;;4.93;1.50;;;;;;;16.23;93.92;100230.50;5007572;28;20064;-77
2023/07/05 03:04:40;;;;;;;4.47;1.60;;;;;;;16.14;92.48;100240.38;4991406;28;20045;-75
2023/07/05 03:07:06;;;;;;;2.22;1.30;;;;;;;16.10;90.09;100255.66;5005414;28;20034;-75
2023/07/05 03:09:31;;;;;;;3.95;1.95;;;;;;;15.92;89.63;100258.94;4990339;28;20123;-75
2023/07/05 03:11:57;;;;;;;3.60;1.63;;;;;;;15.86;89.49;100257.16;4993674;28;20051;-77
2023/07/05 03:14:22;;;;;;;4.20;1.80;;;;;;;15.85;87.62;100257.34;5004968;28;20042;-76
2023/07/05 03:16:48;;;;;;;2.65;1.33;;;;;;;15.63;87.52;100267.97;5009331;28;20033;-73
2023/07/05 03:19:13;;;;;;;4.25;1.50;;;;;;;15.51;89.03;100267.00;5004315;28;20049;-76
2023/07/05 03:21:41;;;;;;;2.40;1.40;;;;;;;15.49;87.65;100264.56;5008174;28;20029;-76
2023/07/05 03:24:07;;;;;;;4.13;1.75;;;;;;;15.45;87.44;100278.25;5011653;28;20041;-75
2023/07/05 03:26:32;;;;;;;4.60;1.85;;;;;;;15.31;88.88;100280.88;5006451;28;20042;-76
2023/07/05 03:28:58;;;;;;;2.60;1.40;;;;;;;15.33;88.03;100272.81;5024401;28;20046;-76
2023/07/05 03:31:25;;;;;;;6.03;1.60;;;;;;;15.23;89.36;100301.94;5009129;28;20037;-74
2023/07/05 03:33:52;;;;;;;5.75;1.95;;;;;;;15.26;88.74;100298.94;5006987;28;20057;-76
2023/07/05 03:36:19;;;;;;;4.07;1.58;;;;;;;15.16;89.28;100308.94;4991915;28;20443;-75
2023/07/05 03:38:45;;;;;;;3.28;1.88;;;;;;;15.15;88.96;100310.75;5003829;28;20053;-76
2023/07/05 03:41:15;;;;;;;4.18;1.83;;;;;;;15.03;89.09;100322.78;4989130;28;20030;-75
2023/07/05 03:43:41;;;;;;;3.63;1.60;;;;;;;14.96;89.70;100314.94;5021786;28;20053;-74
2023/07/05 03:46:10;;;;;;;5.30;1.70;;;;;;;14.94;89.57;100323.97;5001425;28;20034;-77
2023/07/05 03:48:40;;;;;;;5.93;1.60;;;;;;;14.85;89.01;100314.69;5000993;28;20046;-75
2023/07/05 03:51:07;;;;;;;4.63;1.80;;;;;;;14.79;89.29;100321.50;5010908;28;20025;-75
2023/07/05 03:53:35;;;;;;;3.05;1.90;;;;;;;14.86;86.85;100322.34;5005842;28;20191;-76
2023/07/05 03:56:03;;;;;;;5.80;2.20;;;;;;;14.76;86.80;100329.72;5012645;28;20153;-76
2023/07/05 03:58:29;;;;;;;4.10;2.15;;;;;;;14.78;87.14;100349.38;4992343;28;20026;-74
2023/07/05 04:01:03;;;;;;;4.43;1.98;;;;;;;14.68;88.39;100332.50;5005472;28;20034;-76
2023/07/05 04:03:28;;;;;;;6.00;1.90;;;;;;;14.62;88.35;100335.84;5005278;28;21230;-75
2023/07/05 04:05:54;;;;;;;3.60;1.92;;;;;;;14.57;88.73;100337.25;4991013;28;20133;-75
2023/07/05 04:08:19;;;;;;;7.88;2.13;;;;;;;14.55;87.92;100334.00;5005435;28;20033;-75
2023/07/05 04:10:48;;;;;;;9.95;2.20;;;;;;;14.55;88.70;100336.59;5006999;28;20026;-78
2023/07/05 04:13:14;;;;;;;5.65;2.50;;;;;;;14.52;89.01;100342.22;4995221;28;20033;-78
2023/07/05 04:15:39;;;;;;;8.13;2.13;;;;;;;14.55;89.56;100347.03;4991364;28;20089;-76
2023/07/05 04:18:05;;;;;;;4.82;2.30;;;;;;;14.48;88.15;100346.19;4993320;28;20025;-72
2023/07/05 04:20:31;;;;;;;4.13;2.28;;;;;;;14.47;88.58;100352.44;5006570;28;20034;-74
2023/07/05 04:22:58;;;;;;;4.30;2.05;;;;;;;14.46;89.21;100350.81;4994774;28;20348;-76
2023/07/05 04:25:24;;;;;;;6.38;2.42;;;;;;;14.39;89.05;100355.16;4988107;28;20045;-77
2023/07/05 04:27:49;;;;;;;6.22;2.50;;;;;;;14.49;88.56;100345.22;5007188;28;20029;-77
2023/07/05 04:30:14;;;;;;;6.43;2.60;;;;;;;14.48;87.33;100348.00;5002801;28;20050;-75
2023/07/05 04:32:40;;;;;;;4.93;2.45;;;;;;;14.45;86.94;100337.94;5007508;28;20456;-77
2023/07/05 04:35:05;;;;;;;7.05;2.50;;;;;;;14.46;87.64;100345.59;5011612;28;20056;-76
2023/07/05 04:37:31;;;;;;;7.00;2.63;;;;;;;14.53;86.49;100336.00;5009232;28;20559;-76
2023/07/05 04:39:56;;;;;;;8.80;3.10;;;;;;;14.57;85.81;100339.06;5011324;28;20046;-75
2023/07/05 04:42:22;;;;;;;9.15;2.92;;;;;;;14.57;86.03;100337.25;5006906;28;20034;-75
2023/07/05 04:44:47;;;;;;;17.55;2.75;;;;;;;14.66;84.75;100342.31;5004267;28;20049;-71
2023/07/05 04:47:13;;;;;;;7.03;3.50;;;;;;;14.56;84.88;100346.06;5011205;28;20037;-75
2023/07/05 04:49:38;;;;;;;6.00;2.78;;;;;;;14.63;84.59;100355.75;5003674;28;20054;-73
2023/07/05 04:52:04;;;;;;;7.60;2.90;;;;;;;14.61;84.03;100342.88;5005456;28;20030;-75
2023/07/05 04:54:29;;;;;;;7.03;2.88;;;;;;;14.59;83.65;100363.94;4989858;28;20077;-75
2023/07/05 04:56:55;;;;;;;13.10;2.90;;;;;;;14.73;83.17;100350.97;5005632;28;20030;-76
2023/07/05 04:59:21;;;;;;;5.88;2.80;;;;;;;14.76;81.48;100351.38;5002485;28;20045;-75
2023/07/05 05:01:47;;;;;;;6.97;2.60;;;;;;;14.90;80.98;100360.09;5005947;28;20080;-76
2023/07/05 05:04:13;;;;;;;9.35;2.50;;;;;;;14.88;79.25;100367.31;5010181;28;20034;-76
2023/07/05 05:06:38;;;;;;;5.90;2.70;;;;;;;14.93;79.36;100351.84;5006101;28;20036;-76
2023/07/05 05:09:03;;;;;;;4.57;2.55;;;;;;;14.95;78.27;100349.06;5008366;28;20092;-76
2023/07/05 05:11:29;;;;;;;9.82;2.50;;;;;;;14.99;78.53;100350.25;4981219;28;20119;-76
2023/07/05 05:13:55;;;;;;;7.20;2.63;;;;;;;14.91;77.09;100353.06;5009506;28;20045;-76
2023/07/05 05:16:20;;;;;;;7.55;2.35;;;;;;;14.98;77.57;100353.91;5007783;28;20030;-76
2023/07/05 05:18:45;;;;;;;8.32;3.05;;;;;;;14.98;77.78;100359.91;5007539;28;20077;-77
2023/07/05 05:21:11;;;;;;;5.82;2.50;;;;;;;14.86;76.85;100358.06;5009147;28;20111;-75
2023/07/05 05:23:37;;;;;;;9.65;2.58;;;;;;;14.81;77.34;100360.47;5007496;28;20047;-74
2023/07/05 05:26:03;;;;;;;3.92;2.30;;;;;;;14.81;76.69;100363.06;5007878;28;20064;-73
2023/07/05 05:28:30;;;;;;;13.45;2.83;;;;;;;14.76;77.47;100359.22;5009878;28;20038;-75
2023/07/05 05:31:08;;;;;;;9.18;2.70;;;;;;;14.69;78.13;100373.22;4996844;28;20033;-76
2023/07/05 05:33:34;;;;;;;6.20;2.33;;;;;;;14.81;78.61;100365.69;4991189;28;20033;-71
2023/07/05 05:35:59;;;;;;;6.95;2.47;;;;;;;14.75;78.06;100377.69;4995445;28;20504;-74
2023/07/05 05:38:25;;;;;;;6.63;2.33;;;;;;;14.75;78.00;100388.94;5008871;28;20038;-77
2023/07/05 05:40:51;;;;;;;8.00;2.55;;;;;;;14.78;78.07;100383.31;4990064;28;20041;-75
2023/07/05 05:43:19;;;;;;;8.10;2.78;;;;;;;14.79;77.16;100386.75;4994402;28;20079;-75
2023/07/05 05:45:44;;;;;;;10.77;3.10;;;;;;;14.82;77.92;100378.50;5009944;28;20057;-77
2023/07/05 05:48:10;;;;;;;5.97;2.28;;;;;;;14.82;76.83;100380.31;5014253;28;20377;-75
2023/07/05 05:50:36;;;;;;;5.93;2.65;;;;;;;14.76;76.93;100387.91;5007872;28;20037;-75
2023/07/05 05:53:02;;;;;;;6.65;2.78;;;;;;;14.72;77.33;100385.91;5012771;28;20037;-76
2023/07/05 05:55:28;;;;;;;10.55;3.13;;;;;;;14.70;77.24;100399.13;5006585;28;20108;-78
2023/07/05 05:57:54;;;;;;;6.55;2.42;;;;;;;14.69;76.95;100404.53;4996713;28;20721;-77
2023/07/05 06:00:19;;;;;;;7.20;2.65;;;;;;;14.52;76.82;100388.34;4993451;28;20054;-75
2023/07/05 06:02:45;;;;;;;6.38;2.55;;;;;;;14.60;77.00;100401.31;5005120;28;20100;-75
2023/07/05 06:05:11;;;;;;;9.20;2.53;;;;;;;14.65;76.52;100400.72;4989007;28;20134;-76
2023/07/05 06:07:37;;;;;;;11.20;2.20;;;;;;;14.70;75.34;100399.13;5010233;28;20044;-73
2023/07/05 06:10:02;;;;;;;6.15;2.63;;;;;;;14.66;74.98;100416.19;4991247;28;20061;-76
2023/07/05 06:12:28;;;;;;;10.18;2.25;;;;;;;14.62;74.87;100403.69;5011839;28;20195;-76
2023/07/05 06:14:53;;;;;;;10.15;2.33;;;;;;;14.49;75.86;100405.22;5007109;28;20041;-73
2023/07/05 06:17:19;;;;;;;11.00;2.00;;;;;;;14.55;75.40;100408.84;5009937;28;20448;-74
2023/07/05 06:19:44;;;;;;;6.57;2.05;;;;;;;14.57;76.66;100415.50;4988622;28;20035;-78
2023/07/05 06:22:09;;;;;;;4.88;1.98;;;;;;;14.64;76.96;100412.16;5009606;28;20504;-77
2023/07/05 06:24:35;;;;;;;8.77;3.08;;;;;;;14.63;76.09;100394.88;5010828;28;20404;-77
2023/07/05 06:27:01;;;;;;;2.97;1.55;;;;;;;14.74;75.19;100395.13;5010286;28;20036;-74
2023/07/05 06:29:27;;;;;;;5.15;1.95;;;;;;;14.92;75.70;100404.28;5006216;28;20041;-75
2023/07/05 06:31:52;;;;;;;8.98;2.25;;;;;;;15.28;74.13;100413.66;5006953;28;20437;-78
2023/07/05 06:34:18;;;;;;;9.63;2.08;;;;;;;15.36;73.34;100419.50;4994668;28;20049;-76
2023/07/05 06:36:43;;;;;;;10.45;2.08;;;;;;;15.38;72.36;100427.94;5009793;28;20033;-74
2023/07/05 06:39:09;;;;;;;7.30;2.10;;;;;;;15.30;73.30;100419.47;5005200;28;20038;-75
2023/07/05 06:41:34;;;;;;;4.22;1.75;;;;;;;15.15;73.25;100423.03;4993070;28;20037;-75
2023/07/05 06:44:00;;;;;;;5.72;1.83;;;;;;;15.26;74.64;100429.50;5006050;28;20049;-76
2023/07/05 06:46:25;;;;;;;5.70;2.13;;;;;;;15.11;74.50;100440.09;5005623;28;20070;-78
2023/07/05 06:48:50;;;;;;;3.53;1.67;;;;;;;15.51;73.48;100426.38;5003788;28;20678;-78
2023/07/05 06:51:17;;;;;;;9.02;2.15;;;;;;;15.52;72.84;100441.03;5003423;28;20026;-73
2023/07/05 06:53:43;;;;;;;7.80;2.03;;;;;;;16.02;71.82;100433.72;5007577;28;20523;-74
2023/07/05 06:56:11;;;;;;;5.82;1.70;;;;;;;15.75;71.17;100436.31;5008223;28;20034;-77
2023/07/05 06:58:37;;;;;;;8.13;2.35;;;;;;;15.60;72.21;100429.63;5009135;28;20045;-76
2023/07/05 07:01:03;;;;;;;8.25;1.70;;;;;;;15.30;73.43;100437.78;5007626;28;20068;-76
2023/07/05 07:03:29;;;;;;;9.10;1.90;;;;;;;15.13;73.68;100442.53;5007576;28;20057;-77
2023/07/05 07:05:56;;;;;;;7.13;1.55;;;;;;;15.02;73.65;100445.69;5010629;28;20600;-75
2023/07/05 07:08:24;;;;;;;6.57;1.33;;;;;;;14.95;74.28;100456.09;5008684;28;20714;-76
2023/07/05 07:10:49;;;;;;;6.43;1.58;;;;;;;14.91;74.52;100458.28;5006303;28;20026;-77
2023/07/05 07:13:15;;;;;;;8.50;1.45;;;;;;;14.91;74.64;100452.25;5003778;28;20038;-76
2023/07/05 07:15:41;;;;;;;6.85;1.80;;;;;;;14.88;75.05;100455.22;5012576;28;20026;-75
2023/07/05 07:18:08;;;;;;;8.52;2.65;;;;;;;14.88;75.28;100460.44;5007435;28;20049;-77
2023/07/05 07:20:33;;;;;;;4.82;1.75;;;;;;;15.03;75.77;100469.00;4988619;28;20052;-77
2023/07/05 07:22:59;;;;;;;9.07;2.05;;;;;;;15.04;75.15;100470.59;5005239;28;20029;-76
2023/07/05 07:25:25;;;;;;;4.43;1.60;;;;;;;15.07;75.41;100474.59;5006093;28;20049;-76
2023/07/05 07:27:50;;;;;;;4.43;1.52;;;;;;;14.96;77.32;100482.00;5007677;28;20034;-74
2023/07/05 07:30:17;;;;;;;7.32;2.72;;;;;;;14.93;78.34;100471.94;5007330;28;20054;-74
2023/07/05 07:32:45;;;;;;;10.13;2.20;;;;;;;14.97;79.22;100486.25;5007940;28;20040;-75
2023/07/05 07:35:11;;;;;;;7.03;1.85;;;;;;;14.93;79.45;100502.47;5006270;28;20096;-77
2023/07/05 07:37:36;;;;;;;5.63;1.60;;;;;;;14.92;79.65;100498.25;5008336;28;20041;-75
2023/07/05 07:40:04;;;;;;;9.85;1.73;;;;;;;14.98;78.33;100487.84;5004070;28;20065;-77
2023/07/05 07:42:29;;;;;;;4.57;1.40;;;;;;;15.36;77.36;100497.84;5006818;28;20030;-75
2023/07/05 07:44:55;;;;;;;7.53;1.60;;;;;;;15.77;75.31;100499.63;5003290;28;21747;-76
2023/07/05 07:47:21;;;;;;;5.60;1.48;;;;;;;15.94;74.81;100499.28;5005122;28;20058;-78
2023/07/05 07:49:48;;;;;;;10.45;1.63;;;;;;;16.01;72.84;100497.50;5008945;28;20038;-75
2023/07/05 07:52:14;;;;;;;3.80;1.20;;;;;;;16.03;71.56;100505.13;5008370;28;20124;-74
2023/07/05 07:54:39;;;;;;;7.03;1.67;;;;;;;16.05;71.71;100495.25;4992528;28;20038;-77
2023/07/05 07:57:05;;;;;;;5.63;2.08;;;;;;;16.11;71.93;100503.13;4987468;28;20034;-77
2023/07/05 07:59:30;;;;;;;3.72;1.33;;;;;;;16.08;72.24;100516.59;5004958;28;20046;-74
2023/07/05 08:01:56;;;;;;;4.55;1.35;;;;;;;16.03;71.71;100486.81;4986713;28;20563;-76
2023/07/05 08:04:21;;;;;;;9.38;1.50;;;;;;;16.06;70.97;100525.66;5005716;28;20259;-77
2023/07/05 08:06:49;;;;;;;8.98;1.48;;;;;;;16.40;69.54;100511.59;5008654;28;20060;-74
2023/07/05 08:09:25;;;;;;;5.35;1.45;;;;;;;17.46;63.97;100510.63;5010818;28;20085;-77
2023/07/05 08:11:51;;;;;;;6.75;1.67;;;;;;;17.50;63.83;100517.03;5007667;28;20104;-77
2023/07/05 08:14:19;;;;;;;5.35;1.50;;;;;;;17.64;65.20;100517.78;5008757;28;20099;-77
2023/07/05 08:16:45;;;;;;;3.35;0.95;;;;;;;18.04;63.59;100507.06;5008003;28;20044;-76
2023/07/05 08:19:11;;;;;;;7.05;1.15;;;;;;;17.55;63.41;100528.72;5008113;28;20037;-76
2023/07/05 08:21:36;;;;;;;3.35;1.60;;;;;;;17.14;65.33;100528.06;5008151;28;20573;-76
2023/07/05 08:24:03;;;;;;;3.90;1.25;;;;;;;17.87;63.83;100525.13;5007823;28;20042;-75
2023/07/05 08:26:29;;;;;;;6.03;1.38;;;;;;;18.04;61.96;100514.16;4989148;28;20080;-78
2023/07/05 08:28:56;;;;;;;4.60;1.45;;;;;;;18.04;61.26;100525.44;5004531;28;20050;-76
2023/07/05 08:31:23;;;;;;;8.30;1.27;;;;;;;18.38;60.87;100540.97;5009756;28;20036;-77
2023/07/05 08:33:48;;;;;;;6.20;1.30;;;;;;;18.82;59.54;100540.00;5000883;28;20050;-77
2023/07/05 08:36:14;;;;;;;9.18;1.27;;;;;;;18.47;60.50;100543.09;5008504;28;20670;-76
2023/07/05 08:38:42;;;;;;;2.92;1.10;;;;;;;18.45;59.97;100544.34;5008577;28;20596;-76
2023/07/05 08:41:13;;;;;;;3.63;0.95;;;;;;;18.27;60.26;100558.19;5007346;28;20039;-75
2023/07/05 08:44:10;;;;;;;7.68;1.30;;;;;;;17.65;60.45;100557.91;5010535;28;20044;-77
2023/07/05 08:46:38;;;;;;;5.35;1.55;;;;;;;17.51;62.02;100562.41;5010147;28;20034;-76
2023/07/05 08:49:12;;;;;;;8.40;1.25;;;;;;;17.49;62.65;100565.22;5006592;28;20432;-76
2023/07/05 08:51:40;;;;;;;4.57;1.17;;;;;;;17.37;61.79;100579.19;5010054;28;20101;-73
2023/07/05 08:54:11;;;;;;;6.75;1.30;;;;;;;17.04;62.14;100575.59;5003709;28;20054;-77
2023/07/05 08:56:46;;;;;;;7.95;1.60;;;;;;;17.02;63.14;100598.59;5010750;28;20034;-77
2023/07/05 08:59:27;;;;;;;5.32;1.40;;;;;;;16.89;62.19;100580.28;4992464;28;20116;-76
2023/07/05 09:01:55;;;;;;;2.90;1.05;;;;;;;16.95;63.25;100605.63;5006721;28;20127;-75
2023/07/05 09:04:27;;;;;;;6.45;1.30;;;;;;;17.08;62.38;100602.22;5011894;28;20061;-75
2023/07/05 09:07:37;;;;;;;6.72;1.38;;;;;;;17.39;62.28;100614.66;4994391;28;20048;-75
2023/07/05 09:10:15;;;;;;;6.68;1.30;;;;;;;17.54;61.73;100600.47;4992125;28;20744;-75
2023/07/05 09:12:49;;;;;;;6.57;1.33;;;;;;;17.74;62.33;100588.13;5008258;28;20025;-77
2023/07/05 09:15:23;;;;;;;3.47;1.10;;;;;;;17.82;61.09;100605.44;5008494;28;20085;-78
2023/07/05 09:18:07;;;;;;;4.50;1.45;;;;;;;17.69;60.63;100590.56;4994600;28;20397;-76
2023/07/05 09:20:49;;;;;;;4.72;0.98;;;;;;;17.71;60.47;100612.94;5012567;28;20381;-75
2023/07/05 09:23:19;;;;;;;5.20;1.27;;;;;;;17.60;60.10;100600.47;5024805;28;20052;-76
2023/07/05 09:25:48;;;;;;;10.20;1.35;;;;;;;17.61;60.16;100596.84;5009026;28;20041;-77
2023/07/05 09:28:25;;;;;;;4.43;1.08;;;;;;;17.69;60.37;100612.34;5009780;28;20109;-77
2023/07/05 09:30:52;;;;;;;4.35;1.55;;;;;;;17.89;60.52;100621.97;5010477;28;20029;-75
2023/07/05 09:33:30;;;;;;;5.57;1.10;;;;;;;18.03;60.08;100631.41;4992418;28;20057;-76
2023/07/05 09:35:55;;;;;;;8.68;1.35;;;;;;;18.01;58.22;100622.94;5007523;28;20510;-76
2023/07/05 09:38:25;;;;;;;5.80;1.35;;;;;;;18.02;58.71;100626.34;5010766;28;20022;-74
2023/07/05 09:41:04;;;;;;;5.38;1.40;;;;;;;18.04;59.07;100646.13;4994352;28;20040;-76
2023/07/05 09:43:35;;;;;;;6.05;1.23;;;;;;;18.16;58.24;100641.03;5011195;28;20400;-77
2023/07/05 09:46:15;;;;;;;14.52;1.65;;;;;;;17.99;57.79;100645.13;5011663;28;20087;-76
2023/07/05 09:48:44;;;;;;;6.72;1.58;;;;;;;17.94;57.35;100634.47;5009155;28;20140;-77
2023/07/05 09:51:11;;;;;;;6.57;1.85;;;;;;;17.77;57.59;100637.53;5006573;28;20036;-77
2023/07/05 09:53:51;;;;;;;6.57;1.77;;;;;;;18.07;57.59;100652.78;5014114;28;20045;-76
2023/07/05 09:56:29;;;;;;;8.15;1.60;;;;;;;17.88;56.27;100650.03;5018086;28;20036;-77
2023/07/05 09:59:08;;;;;;;7.20;1.48;;;;;;;17.71;57.96;100665.38;5015332;28;20038;-79
2023/07/05 10:01:37;;;;;;;8.45;1.75;;;;;;;17.89;57.74;100656.06;5007555;28;21056;-76
2023/07/05 10:04:04;;;;;;;9.43;1.20;;;;;;;18.45;56.83;100665.09;5022928;28;20054;-80
2023/07/05 10:06:30;;;;;;;10.18;1.40;;;;;;;19.08;54.12;100666.09;5009978;28;20520;-74
2023/07/05 10:09:04;;;;;;;7.38;1.80;;;;;;;18.84;55.02;100663.25;5023942;28;20112;-78
2023/07/05 10:11:34;;;;;;;5.95;1.45;;;;;;;19.56;53.55;100657.53;5011554;28;20018;-75
2023/07/05 10:14:03;;;;;;;7.68;1.58;;;;;;;19.76;52.10;100654.72;5009033;28;20508;-76
2023/07/05 10:16:56;;;;;;;10.88;1.35;;;;;;;19.72;52.58;100664.88;5013193;28;20029;-76
2023/07/05 10:19:28;;;;;;;;;;;;;;;19.69;52.17;100670.56;5008131;28;20282;-76
2023/07/05 10:22:01;;;;;;;4.15;0.90;;;;;;;20.42;51.85;100661.75;5013546;28;19964;-77
2023/07/05 10:24:28;;;;;;;6.05;1.25;;;;;;;20.25;51.33;100671.31;5011467;28;20046;-75
2023/07/05 10:27:10;;;;;;;5.40;1.25;;;;;;;20.32;50.93;100676.50;4993801;28;20038;-78
2023/07/05 10:29:36;;;;;;;5.28;1.38;;;;;;;20.41;49.75;100677.78;4992035;28;20452;-76
2023/07/05 10:32:02;;;;;;;8.68;1.42;;;;;;;20.61;50.34;100688.88;5009954;28;20084;-76
2023/07/05 10:34:27;;;;;;;4.72;1.05;;;;;;;20.83;50.75;100682.25;5012164;28;20084;-77
2023/07/05 10:36:54;;;;;;;7.60;1.40;;;;;;;20.75;48.77;100697.38;5023531;28;20042;-76
2023/07/05 10:39:26;;;;;;;13.43;1.20;;;;;;;21.13;49.02;100693.50;5007826;28;20152;-77
2023/07/05 10:41:56;;;;;;;5.87;1.33;;;;;;;21.55;48.73;100695.28;5003163;28;20034;-77
2023/07/05 10:44:30;;;;;;;4.47;1.25;;;;;;;21.76;47.21;100705.22;5006628;28;20042;-75
2023/07/05 10:46:56;;;;;;;7.00;1.00;;;;;;;20.91;46.93;100711.72;5015260;28;20029;-76
2023/07/05 10:49:23;;;;;;;6.35;1.17;;;;;;;20.48;48.15;100717.19;5010466;28;20133;-76
2023/07/05 10:51:53;;;;;;;7.07;1.45;;;;;;;20.49;47.83;100727.50;5008367;28;20026;-77
2023/07/05 10:54:32;;;;;;;5.30;1.02;;;;;;;20.82;47.39;100726.25;5005575;28;20042;-82
2023/07/05 10:57:03;;;;;;;7.50;1.00;;;;;;;21.03;46.25;100724.91;5010458;28;20378;-79
2023/07/05 10:59:38;;;;;;;4.22;1.00;;;;;;;20.83;45.51;100719.94;5008651;28;20265;-79
2023/07/05 11:02:32;;;;;;;7.47;1.30;;;;;;;20.45;47.19;100723.69;5006936;28;20054;-77
2023/07/05 11:04:58;;;;;;;9.63;1.63;;;;;;;20.30;48.48;100736.47;5009689;28;20129;-77
2023/07/05 11:07:25;;;;;;;8.13;1.15;;;;;;;20.52;48.91;100737.59;5018590;28;20550;-77
2023/07/05 11:09:51;;;;;;;5.78;0.90;;;;;;;20.96;47.39;100732.94;4990323;28;20069;-77
2023/07/05 11:12:28;;;;;;;4.53;1.10;;;;;;;20.95;46.04;100739.22;5008221;28;20026;-76
2023/07/05 11:14:56;;;;;;;4.63;1.33;;;;;;;20.82;46.49;100749.19;5006430;28;20038;-78
2023/07/05 11:17:31;;;;;;;4.03;1.10;;;;;;;20.56;46.03;100741.38;5011109;28;20088;-72
2023/07/05 11:19:56;;;;;;;6.63;1.13;;;;;;;20.96;45.44;100742.66;5003025;28;20051;-75
2023/07/05 11:22:44;;;;;;;3.88;1.08;;;;;;;21.22;45.09;100756.47;5006204;28;20099;-77
2023/07/05 11:25:16;;;;;;;8.73;1.40;;;;;;;21.57;44.51;100740.69;5007062;28;20083;-75
2023/07/05 11:27:53;;;;;;;3.70;1.65;;;;;;;21.70;44.30;100742.28;5008829;28;20036;-77
2023/07/05 11:30:43;;;;;;;5.43;1.30;;;;;;;21.37;44.73;100752.34;5000744;28;20038;-74